createdAt,value
2018-04-27T00:00:25.771Z,20.83
2018-04-27T00:02:53.394Z,22.87
2018-04-27T00:05:21.026Z,23.37
2018-04-27T00:07:48.653Z,21.83
2018-04-27T00:10:16.286Z,21.50
2018-04-27T00:12:43.912Z,20.93
2018-04-27T00:15:11.512Z,20.90
2018-04-27T00:17:39.127Z,22.90
2018-04-27T00:20:06.743Z,21.30
2018-04-27T00:22:34.377Z,22.87
2018-04-27T00:25:02.751Z,25.40
2018-04-27T00:27:31.134Z,24.30
2018-04-27T00:29:59.548Z,22.50
2018-04-27T00:32:27.167Z,25.77
2018-04-27T00:34:55.578Z,21.37
2018-04-27T00:37:23.203Z,23.93
2018-04-27T00:39:50.816Z,21.60
2018-04-27T00:42:18.430Z,21.13
2018-04-27T00:44:46.812Z,22.87
2018-04-27T00:47:15.194Z,22.27
2018-04-27T00:49:43.597Z,22.70
2018-04-27T00:52:11.195Z,21.57
2018-04-27T00:54:38.806Z,20.33
2018-04-27T00:57:07.217Z,20.83
2018-04-27T00:59:34.834Z,20.13
2018-04-27T01:02:03.234Z,21.03
2018-04-27T01:04:31.624Z,19.67
2018-04-27T01:06:59.244Z,23.80
2018-04-27T01:09:26.854Z,18.87
2018-04-27T01:11:54.505Z,20.50
2018-04-27T01:14:22.122Z,19.50
2018-04-27T01:16:49.753Z,20.37
2018-04-27T01:19:17.396Z,19.67
2018-04-27T01:21:45.018Z,21.73
2018-04-27T01:24:12.646Z,19.70
2018-04-27T01:26:40.262Z,19.00
2018-04-27T01:29:08.647Z,20.87
2018-04-27T01:31:37.049Z,19.37
2018-04-27T01:34:04.697Z,20.93
2018-04-27T01:36:32.337Z,18.27
2018-04-27T01:39:00.756Z,20.33
2018-04-27T01:41:28.385Z,15.27
2018-04-27T01:43:56.756Z,17.90
2018-04-27T01:46:25.155Z,18.70
2018-04-27T01:48:52.790Z,18.67
2018-04-27T01:51:20.425Z,17.57
2018-04-27T01:53:48.035Z,19.87
2018-04-27T01:56:16.445Z,16.67
2018-04-27T01:58:44.092Z,19.70
2018-04-27T02:01:11.702Z,16.73
2018-04-27T02:03:40.126Z,18.70
2018-04-27T02:06:07.740Z,16.83
2018-04-27T02:08:35.354Z,15.83
2018-04-27T02:11:02.949Z,19.33
2018-04-27T02:13:30.493Z,15.13
2018-04-27T02:15:58.067Z,15.27
2018-04-27T02:18:25.612Z,13.93
2018-04-27T02:20:53.152Z,14.87
2018-04-27T02:23:20.718Z,15.20
2018-04-27T02:25:48.248Z,13.90
2018-04-27T02:28:15.805Z,16.00
2018-04-27T02:30:43.386Z,15.23
2018-04-27T02:33:11.693Z,15.60
2018-04-27T02:35:39.240Z,13.77
2018-04-27T02:38:06.804Z,14.37
2018-04-27T02:40:34.348Z,14.57
2018-04-27T02:43:01.911Z,15.10
2018-04-27T02:45:29.474Z,14.37
2018-04-27T02:47:57.037Z,11.93
2018-04-27T02:50:24.581Z,13.27
2018-04-27T02:52:52.901Z,11.33
2018-04-27T02:55:20.459Z,13.23
2018-04-27T02:57:47.993Z,14.63
2018-04-27T03:00:15.542Z,15.23
2018-04-27T03:02:43.848Z,13.40
2018-04-27T03:05:11.418Z,14.33
2018-04-27T03:07:38.982Z,13.83
2018-04-27T03:10:06.531Z,12.63
2018-04-27T03:12:34.073Z,12.17
2018-04-27T03:15:01.632Z,14.80
2018-04-27T03:17:29.219Z,13.70
2018-04-27T03:19:56.763Z,14.77
2018-04-27T03:22:24.323Z,12.77
2018-04-27T03:24:51.887Z,12.47
2018-04-27T03:27:19.451Z,11.23
2018-04-27T03:29:46.992Z,11.50
2018-04-27T03:32:14.548Z,11.50
2018-04-27T03:34:42.110Z,11.37
2018-04-27T03:37:09.673Z,11.90
2018-04-27T03:39:37.217Z,16.00
2018-04-27T03:42:05.545Z,12.43
2018-04-27T03:44:33.089Z,10.83
2018-04-27T03:47:00.650Z,13.40
2018-04-27T03:49:28.188Z,13.90
2018-04-27T03:51:55.776Z,11.87
2018-04-27T03:54:23.311Z,12.57
2018-04-27T03:56:50.876Z,13.17
2018-04-27T03:59:30.230Z,13.10
2018-04-27T04:02:09.737Z,13.23
2018-04-27T04:04:49.928Z,11.73
2018-04-27T04:07:17.488Z,8.77
2018-04-27T04:09:45.028Z,10.13
2018-04-27T04:12:12.570Z,13.40
2018-04-27T04:14:40.910Z,12.70
2018-04-27T04:17:08.465Z,12.67
2018-04-27T04:19:36.025Z,11.43
2018-04-27T04:22:03.568Z,11.17
2018-04-27T04:24:31.142Z,10.77
2018-04-27T04:26:58.684Z,12.53
2018-04-27T04:29:26.263Z,11.83
2018-04-27T04:31:53.808Z,11.53
2018-04-27T04:34:21.358Z,13.40
2018-04-27T04:36:48.898Z,11.33
2018-04-27T04:39:16.427Z,11.27
2018-04-27T04:41:43.980Z,10.50
2018-04-27T04:44:11.530Z,12.07
2018-04-27T04:46:39.085Z,10.93
2018-04-27T04:49:06.877Z,10.47
2018-04-27T04:51:35.201Z,11.20
2018-04-27T04:54:02.772Z,12.13
2018-04-27T04:56:30.313Z,14.77
2018-04-27T04:58:57.865Z,19.77
2018-04-27T05:01:25.408Z,21.70
2018-04-27T05:03:53.717Z,21.83
2018-04-27T05:06:21.299Z,25.60
2018-04-27T05:08:48.845Z,21.93
2018-04-27T05:11:16.408Z,23.13
2018-04-27T05:13:43.984Z,20.57
2018-04-27T05:16:11.510Z,22.70
2018-04-27T05:18:54.889Z,19.20
2018-04-27T05:21:22.458Z,19.93
2018-04-27T05:23:50.017Z,20.67
2018-04-27T05:26:17.565Z,21.63
2018-04-27T05:28:45.124Z,18.70
2018-04-27T05:31:26.376Z,24.80
2018-04-27T05:33:53.940Z,21.50
2018-04-27T05:36:21.484Z,20.20
2018-04-27T05:38:49.049Z,18.53
2018-04-27T05:41:16.643Z,21.13
2018-04-27T05:43:44.192Z,22.70
2018-04-27T05:46:11.771Z,17.33
2018-04-27T05:48:39.302Z,16.73
2018-04-27T05:51:06.879Z,17.43
2018-04-27T05:53:34.439Z,18.07
2018-04-27T05:56:01.995Z,16.63
2018-04-27T05:58:29.562Z,20.13
2018-04-27T06:00:57.086Z,18.30
2018-04-27T06:03:24.672Z,15.90
2018-04-27T06:05:52.232Z,16.83
2018-04-27T06:08:19.886Z,18.30
2018-04-27T06:10:47.433Z,15.77
2018-04-27T06:13:14.995Z,16.27
2018-04-27T06:15:42.526Z,16.63
2018-04-27T06:18:10.852Z,14.83
2018-04-27T06:20:38.400Z,16.40
2018-04-27T06:23:05.972Z,13.67
2018-04-27T06:25:33.502Z,17.40
2018-04-27T06:28:01.040Z,13.80
2018-04-27T06:30:29.387Z,13.17
2018-04-27T06:32:56.941Z,17.70
2018-04-27T06:35:24.506Z,15.33
2018-04-27T06:37:52.034Z,13.40
2018-04-27T06:40:19.576Z,13.57
2018-04-27T06:42:47.133Z,15.00
2018-04-27T06:45:14.715Z,14.17
2018-04-27T06:47:42.272Z,12.87
2018-04-27T06:50:09.821Z,15.87
2018-04-27T06:52:37.366Z,15.20
2018-04-27T06:55:05.688Z,15.33
2018-04-27T06:57:33.273Z,15.70
2018-04-27T07:00:00.837Z,14.23
2018-04-27T07:02:28.401Z,17.10
2018-04-27T07:04:55.941Z,14.93
2018-04-27T07:07:23.488Z,16.60
2018-04-27T07:09:51.035Z,15.33
2018-04-27T07:12:18.562Z,15.07
2018-04-27T07:14:46.888Z,15.23
2018-04-27T07:17:14.474Z,15.20
2018-04-27T07:19:42.044Z,15.83
2018-04-27T07:22:10.338Z,15.90
2018-04-27T07:24:38.657Z,16.40
2018-04-27T07:27:06.239Z,13.13
2018-04-27T07:29:33.766Z,15.30
2018-04-27T07:32:01.325Z,15.43
2018-04-27T07:34:28.888Z,14.33
2018-04-27T07:36:56.438Z,13.10
2018-04-27T07:39:23.966Z,13.83
2018-04-27T07:41:52.272Z,14.43
2018-04-27T07:44:19.832Z,12.97
2018-04-27T07:46:47.376Z,12.43
2018-04-27T07:49:15.714Z,11.47
2018-04-27T07:51:43.252Z,9.90
2018-04-27T07:54:10.831Z,11.10
2018-04-27T07:56:38.377Z,11.53
2018-04-27T07:59:05.923Z,12.80
2018-04-27T08:01:33.499Z,13.37
2018-04-27T08:04:01.035Z,11.50
2018-04-27T08:06:28.606Z,12.07
2018-04-27T08:08:56.238Z,12.20
2018-04-27T08:11:23.796Z,10.97
2018-04-27T08:13:52.103Z,8.70
2018-04-27T08:16:19.649Z,11.90
2018-04-27T08:18:47.209Z,11.07
2018-04-27T08:21:14.772Z,11.77
2018-04-27T08:23:42.387Z,10.87
2018-04-27T08:26:09.918Z,11.50
2018-04-27T08:28:37.498Z,11.20
2018-04-27T08:31:05.040Z,9.53
2018-04-27T08:33:32.584Z,10.57
2018-04-27T08:36:00.155Z,10.37
2018-04-27T08:38:27.715Z,10.77
2018-04-27T08:40:55.284Z,11.00
2018-04-27T08:43:22.836Z,10.63
2018-04-27T08:45:50.410Z,12.10
2018-04-27T08:48:17.975Z,8.80
2018-04-27T08:50:45.525Z,10.40
2018-04-27T08:53:13.084Z,9.57
2018-04-27T08:55:40.622Z,9.43
2018-04-27T08:58:08.181Z,8.67
2018-04-27T09:00:35.706Z,9.77
2018-04-27T09:03:04.011Z,11.97
2018-04-27T09:05:31.553Z,9.57
2018-04-27T09:07:59.880Z,12.27
2018-04-27T09:10:27.410Z,11.20
2018-04-27T09:12:54.972Z,11.60
2018-04-27T09:15:22.517Z,10.80
2018-04-27T09:17:50.046Z,11.70
2018-04-27T09:20:17.593Z,13.73
2018-04-27T09:22:45.137Z,11.23
2018-04-27T09:25:12.704Z,10.73
2018-04-27T09:27:40.251Z,10.10
2018-04-27T09:30:07.798Z,9.73
2018-04-27T09:32:35.357Z,8.40
2018-04-27T09:35:02.926Z,9.83
2018-04-27T09:37:30.473Z,9.77
2018-04-27T09:39:57.994Z,9.70
2018-04-27T09:42:25.537Z,8.53
2018-04-27T09:44:53.077Z,8.73
2018-04-27T09:47:20.619Z,9.23
2018-04-27T09:49:48.161Z,10.57
2018-04-27T09:52:15.720Z,10.73
2018-04-27T09:54:43.270Z,9.70
2018-04-27T09:57:10.836Z,9.60
2018-04-27T09:59:38.375Z,8.50
2018-04-27T10:02:06.684Z,7.87
2018-04-27T10:04:34.226Z,9.87
2018-04-27T10:07:02.533Z,7.40
2018-04-27T10:09:30.084Z,7.50
2018-04-27T10:11:57.644Z,8.20
2018-04-27T10:14:25.185Z,11.33
2018-04-27T10:16:53.518Z,8.63
2018-04-27T10:19:21.149Z,11.23
2018-04-27T10:21:48.724Z,8.13
2018-04-27T10:24:16.299Z,8.33
2018-04-27T10:26:43.841Z,9.53
2018-04-27T10:29:11.400Z,8.60
2018-04-27T10:31:39.052Z,13.73
2018-04-27T10:34:06.680Z,7.53
2018-04-27T10:36:35.055Z,7.53
2018-04-27T10:39:03.386Z,6.77
2018-04-27T10:41:30.952Z,10.20
2018-04-27T10:43:58.509Z,6.80
2018-04-27T10:46:26.053Z,8.57
2018-04-27T10:48:53.611Z,7.97
2018-04-27T10:51:21.138Z,7.17
2018-04-27T10:53:49.467Z,7.73
2018-04-27T10:56:17.005Z,7.20
2018-04-27T10:58:44.548Z,8.83
2018-04-27T11:01:12.119Z,7.63
2018-04-27T11:03:39.693Z,6.33
2018-04-27T11:06:07.244Z,5.67
2018-04-27T11:08:34.812Z,10.57
2018-04-27T11:11:02.429Z,9.97
2018-04-27T11:13:30.766Z,7.93
2018-04-27T11:15:58.339Z,8.57
2018-04-27T11:18:25.904Z,7.17
2018-04-27T11:20:53.456Z,11.20
2018-04-27T11:23:21.047Z,11.73
2018-04-27T11:25:48.574Z,7.73
2018-04-27T11:28:16.248Z,8.50
2018-04-27T11:30:43.841Z,5.90
2018-04-27T11:33:12.196Z,6.53
2018-04-27T11:35:39.774Z,9.73
2018-04-27T11:38:08.129Z,9.97
2018-04-27T11:40:35.806Z,8.63
2018-04-27T11:43:04.126Z,11.73
2018-04-27T11:45:31.678Z,6.90
2018-04-27T11:47:59.221Z,7.47
2018-04-27T11:50:27.533Z,9.90
2018-04-27T11:52:55.096Z,10.60
2018-04-27T11:55:22.626Z,6.07
2018-04-27T11:57:50.952Z,6.47
2018-04-27T12:00:21.455Z,8.63
2018-04-27T12:02:49.041Z,5.90
2018-04-27T12:05:16.588Z,8.63
2018-04-27T12:07:44.143Z,9.33
2018-04-27T12:10:11.702Z,9.83
2018-04-27T12:12:39.283Z,8.03
2018-04-27T12:15:06.825Z,9.27
2018-04-27T12:17:34.391Z,5.70
2018-04-27T12:20:01.990Z,9.63
2018-04-27T12:22:29.545Z,7.77
2018-04-27T12:24:57.125Z,11.23
2018-04-27T12:27:25.439Z,10.27
2018-04-27T12:29:52.996Z,8.20
2018-04-27T12:32:20.571Z,8.17
2018-04-27T12:34:48.129Z,6.70
2018-04-27T12:37:15.757Z,5.67
2018-04-27T12:39:44.071Z,7.03
2018-04-27T12:42:11.623Z,7.37
2018-04-27T12:44:39.185Z,9.37
2018-04-27T12:47:06.711Z,8.30
2018-04-27T12:49:35.059Z,6.97
2018-04-27T12:52:02.587Z,7.53
2018-04-27T12:54:30.155Z,6.80
2018-04-27T12:56:57.705Z,7.40
2018-04-27T12:59:25.271Z,5.70
2018-04-27T13:01:52.829Z,8.53
2018-04-27T13:04:20.401Z,5.57
2018-04-27T13:06:47.930Z,8.57
2018-04-27T13:09:15.490Z,11.37
2018-04-27T13:11:43.053Z,21.83
2018-04-27T13:14:10.679Z,20.60
2018-04-27T13:16:38.173Z,20.50
2018-04-27T13:19:05.759Z,21.87
2018-04-27T13:21:33.329Z,20.13
2018-04-27T13:24:00.872Z,25.40
2018-04-27T13:26:28.462Z,25.60
2018-04-27T13:28:56.028Z,25.03
2018-04-27T13:31:23.656Z,26.90
2018-04-27T13:33:51.257Z,26.60
2018-04-27T13:36:18.800Z,28.30
2018-04-27T13:38:46.413Z,24.30
2018-04-27T13:41:13.975Z,28.47
2018-04-27T13:43:41.544Z,26.70
2018-04-27T13:46:09.232Z,25.73
2018-04-27T13:48:36.795Z,22.80
2018-04-27T13:51:04.360Z,26.60
2018-04-27T13:53:31.927Z,38.47
2018-04-27T13:55:59.496Z,59.10
2018-04-27T13:58:27.040Z,119.70
2018-04-27T14:00:54.610Z,211.80
2018-04-27T14:03:22.309Z,166.87
2018-04-27T14:05:50.629Z,150.40
2018-04-27T14:08:18.192Z,104.83
2018-04-27T14:10:47.014Z,159.40
2018-04-27T14:13:15.682Z,129.60
2018-04-27T14:15:43.266Z,124.33
2018-04-27T14:18:10.904Z,112.10
2018-04-27T14:23:18.092Z,97.63
2018-04-27T14:25:45.923Z,89.67
2018-04-27T14:28:14.418Z,84.70
2018-04-27T14:30:41.992Z,71.50
2018-04-27T14:33:09.541Z,61.30
2018-04-27T14:35:46.185Z,60.07
2018-04-27T14:38:18.119Z,56.23
2018-04-27T14:40:45.666Z,46.30
2018-04-27T14:43:13.198Z,45.40
2018-04-27T14:45:40.770Z,44.47
2018-04-27T14:48:08.306Z,39.50
2018-04-27T14:50:35.866Z,38.03
2018-04-27T14:53:03.408Z,34.73
2018-04-27T14:55:31.756Z,33.90
2018-04-27T14:57:59.310Z,34.10
2018-04-27T15:00:26.870Z,30.10
2018-04-27T15:02:54.422Z,27.33
2018-04-27T15:05:21.976Z,32.80
2018-04-27T15:07:50.527Z,25.43
2018-04-27T15:10:18.134Z,24.60
2018-04-27T15:12:45.736Z,21.67
2018-04-27T15:15:14.146Z,22.27
2018-04-27T15:17:41.732Z,24.07
2018-04-27T15:20:09.286Z,21.23
2018-04-27T15:22:36.853Z,20.33
2018-04-27T15:25:04.452Z,18.87
2018-04-27T15:27:32.780Z,16.23
2018-04-27T15:30:00.378Z,20.20
2018-04-27T15:32:27.942Z,19.60
2018-04-27T15:34:55.549Z,46.37
2018-04-27T15:37:23.110Z,61.10
2018-04-27T15:39:50.821Z,57.20
2018-04-27T15:42:19.157Z,64.67
2018-04-27T15:44:46.692Z,94.33
2018-04-27T15:47:14.260Z,78.30
2018-04-27T15:49:44.745Z,71.17
2018-04-27T15:52:13.126Z,73.13
2018-04-27T15:54:40.679Z,65.27
2018-04-27T15:57:08.221Z,49.93
2018-04-27T15:59:35.774Z,45.50
2018-04-27T16:02:03.334Z,47.37
2018-04-27T16:04:30.909Z,43.60
2018-04-27T16:06:58.643Z,41.73
2018-04-27T16:09:27.287Z,40.27
2018-04-27T16:11:55.425Z,38.70
2018-04-27T16:14:22.996Z,32.87
2018-04-27T16:16:50.545Z,32.20
2018-04-27T16:19:19.518Z,34.73
2018-04-27T16:21:48.059Z,30.00
2018-04-27T16:24:16.561Z,30.63
2018-04-27T16:26:44.133Z,27.67
2018-04-27T16:29:12.002Z,25.00
2018-04-27T16:31:39.789Z,24.90
2018-04-27T16:34:15.820Z,24.03
2018-04-27T16:36:44.442Z,25.70
2018-04-27T16:39:12.022Z,23.23
2018-04-27T16:41:39.581Z,21.37
2018-04-27T16:44:08.905Z,24.07
2018-04-27T16:46:36.599Z,19.97
2018-04-27T16:49:05.539Z,17.97
2018-04-27T16:51:34.114Z,16.87
2018-04-27T16:54:01.883Z,16.93
2018-04-27T16:56:30.211Z,20.27
2018-04-27T16:58:58.186Z,17.60
2018-04-27T17:01:25.771Z,30.87
2018-04-27T17:03:53.343Z,39.53
2018-04-27T17:06:20.913Z,51.73
2018-04-27T17:08:48.466Z,50.30
2018-04-27T17:11:16.044Z,50.50
2018-04-27T17:13:44.382Z,53.07
2018-04-27T17:16:11.938Z,55.47
2018-04-27T17:18:39.486Z,55.60
2018-04-27T17:21:07.057Z,52.20
2018-04-27T17:23:34.608Z,49.80
2018-04-27T17:26:02.171Z,46.63
2018-04-27T17:28:29.820Z,46.67
2018-04-27T17:30:57.540Z,43.60
2018-04-27T17:33:26.053Z,40.03
2018-04-27T17:35:53.625Z,44.10
2018-04-27T17:38:21.789Z,43.13
2018-04-27T17:40:51.443Z,38.23
2018-04-27T17:43:19.236Z,36.93
2018-04-27T17:45:48.029Z,36.67
2018-04-27T17:48:17.132Z,34.77
2018-04-27T17:50:45.395Z,34.37
2018-04-27T17:53:26.530Z,29.60
2018-04-27T17:55:54.269Z,32.27
2018-04-27T17:58:22.787Z,27.67
2018-04-27T18:00:50.506Z,26.63
2018-04-27T18:03:18.856Z,25.13
2018-04-27T18:05:47.196Z,25.90
2018-04-27T18:08:14.749Z,26.43
2018-04-27T18:10:42.365Z,36.30
2018-04-27T18:13:09.916Z,46.43
2018-04-27T18:15:38.641Z,49.33
2018-04-27T18:18:06.216Z,49.73
2018-04-27T18:20:33.812Z,51.50
2018-04-27T18:23:01.427Z,51.90
2018-04-27T18:25:29.754Z,47.07
2018-04-27T18:27:57.267Z,47.20
2018-04-27T18:30:24.826Z,42.07
2018-04-27T18:32:52.406Z,45.63
2018-04-27T18:35:20.075Z,41.53
2018-04-27T18:37:47.670Z,43.67
2018-04-27T18:40:16.068Z,42.90
2018-04-27T18:42:43.678Z,43.70
2018-04-27T18:45:11.211Z,41.87
2018-04-27T18:47:38.851Z,46.00
2018-04-27T18:50:06.435Z,42.33
2018-04-27T18:52:34.007Z,39.23
2018-04-27T18:55:01.572Z,40.20
2018-04-27T18:57:29.121Z,40.70
2018-04-27T18:59:56.683Z,37.63
2018-04-27T19:02:24.274Z,38.07
2018-04-27T19:04:51.836Z,38.67
2018-04-27T19:07:21.158Z,38.13
2018-04-27T19:09:48.720Z,37.37
2018-04-27T19:12:17.025Z,36.33
2018-04-27T19:14:44.640Z,36.27
2018-04-27T19:17:13.985Z,37.10
2018-04-27T19:19:41.533Z,34.30
2018-04-27T19:22:09.869Z,39.30
2018-04-27T19:24:38.999Z,36.97
2018-04-27T19:27:07.330Z,38.13
2018-04-27T19:29:34.902Z,59.73
2018-04-27T19:32:02.678Z,57.87
2018-04-27T19:34:31.041Z,88.27
2018-04-27T19:36:59.494Z,106.77
2018-04-27T19:39:27.073Z,168.67
2018-04-27T19:41:54.649Z,179.87
2018-04-27T19:44:22.214Z,148.03
2018-04-27T19:46:49.760Z,196.47
2018-04-27T19:49:17.315Z,174.10
2018-04-27T19:51:45.145Z,197.37
2018-04-27T19:54:13.483Z,148.10
2018-04-27T19:56:41.267Z,186.03
2018-04-27T19:59:08.838Z,187.63
2018-04-27T20:01:36.445Z,147.37
2018-04-27T20:04:04.045Z,153.37
2018-04-27T20:06:31.591Z,152.50
2018-04-27T20:08:59.182Z,150.47
2018-04-27T20:11:27.605Z,155.37
2018-04-27T20:13:55.097Z,146.47
2018-04-27T20:16:34.660Z,149.47
2018-04-27T20:19:02.273Z,163.37
2018-04-27T20:21:30.623Z,115.80
2018-04-27T20:23:58.196Z,126.33
2018-04-27T20:26:25.918Z,127.27
2018-04-27T20:33:14.014Z,139.40
2018-04-27T20:35:41.712Z,135.37
2018-04-27T20:41:09.178Z,134.17
2018-04-27T20:43:36.756Z,132.97
2018-04-27T20:46:04.388Z,130.67
2018-04-27T20:48:31.978Z,135.93
2018-04-27T20:51:01.081Z,131.37
2018-04-27T20:53:30.581Z,130.57
2018-04-27T20:55:58.929Z,134.37
2018-04-27T20:58:26.510Z,127.83
2018-04-27T21:00:54.206Z,128.13
2018-04-27T21:03:22.636Z,128.13
2018-04-27T21:05:50.276Z,127.30
2018-04-27T21:08:18.630Z,124.37
2018-04-27T21:10:46.284Z,124.73
2018-04-27T21:13:13.872Z,121.80
2018-04-27T21:15:42.190Z,121.57
2018-04-27T21:18:24.760Z,123.37
2018-04-27T21:20:53.136Z,121.40
2018-04-27T21:23:21.459Z,124.57
2018-04-27T21:25:49.881Z,120.10
2018-04-27T21:28:17.522Z,117.33
2018-04-27T21:30:48.738Z,120.50
2018-04-27T21:33:16.487Z,117.00
2018-04-27T21:35:49.857Z,122.57
2018-04-27T21:41:32.579Z,117.23
2018-04-27T21:44:06.908Z,112.97
2018-04-27T21:46:34.521Z,113.93
2018-04-27T21:51:58.439Z,110.80
2018-04-27T21:54:27.617Z,114.33
2018-04-27T21:57:09.705Z,110.67
2018-04-27T21:59:43.948Z,110.50
2018-04-27T22:05:13.579Z,110.47
2018-04-27T22:07:41.854Z,107.33
2018-04-27T22:10:09.412Z,111.33
2018-04-27T22:12:43.789Z,108.50
2018-04-27T22:15:11.450Z,107.40
2018-04-27T22:17:40.029Z,106.50
2018-04-27T22:20:08.617Z,105.47
2018-04-27T22:22:36.280Z,108.27
2018-04-27T22:25:15.531Z,105.00
2018-04-27T22:27:45.580Z,101.23
2018-04-27T22:30:31.023Z,104.60
2018-04-27T22:32:58.656Z,104.67
2018-04-27T22:35:29.043Z,105.33
2018-04-27T22:37:56.648Z,101.13
2018-04-27T22:43:23.765Z,101.33
2018-04-27T22:46:03.194Z,93.83
2018-04-27T22:48:30.771Z,98.57
2018-04-27T22:51:04.391Z,97.60
2018-04-27T22:53:35.470Z,98.53
2018-04-27T22:56:03.011Z,95.20
2018-04-27T22:58:31.477Z,92.07
2018-04-27T23:01:08.403Z,93.97
2018-04-27T23:03:37.384Z,95.93
2018-04-27T23:06:08.665Z,95.13
2018-04-27T23:08:36.212Z,93.20
2018-04-27T23:11:25.438Z,95.13
2018-04-27T23:16:54.107Z,94.83
2018-04-27T23:22:30.352Z,91.40
2018-04-27T23:25:01.424Z,89.87
2018-04-27T23:27:29.001Z,89.40
2018-04-27T23:29:56.555Z,88.60
2018-04-27T23:32:25.940Z,91.23
2018-04-27T23:34:54.344Z,85.87
2018-04-27T23:37:21.913Z,83.57
2018-04-27T23:39:49.465Z,85.97
2018-04-27T23:42:17.023Z,85.37
2018-04-27T23:44:44.598Z,84.47
2018-04-27T23:47:12.146Z,85.17
2018-04-27T23:49:39.724Z,83.13
2018-04-27T23:52:07.258Z,80.00
2018-04-27T23:54:34.817Z,82.57
2018-04-27T23:57:02.381Z,81.97
2018-04-27T23:59:35.816Z,80.80
